Rogers Spring, Nevada Weather observations

Data are for 10 minute period ending at time listed.
 Day   Time   Solar   Ave.   Ave.  Ave.  Vector  Max.   Baro.   Total    
  of    of     Rad.   Air    Rel.  Wind   Wind   Wind  Press.  Precip.   
Year   Day            Temp.  Hum.  Speed  Dir.   Gust                    
2016   (PST)  Kw/m2    F      %     mph   deg.    mph    mb.     in.     
-------------------------------------------------------------------------
 271    0:50   0.00   59.9    28    1.2    38     2.6   934.6    0.00 
 271    1:00   0.00   58.9    30    3.1    45     4.2   934.6    0.00 
 271    1:10   0.00   58.1    30    3.6    67     4.7   934.5    0.00 
 271    1:20   0.00   57.4    32    2.9    60     5.0   934.5    0.00 
 271    1:30   0.00   55.6    35    2.7    54     4.2   934.4    0.00 
 271    1:40   0.00   54.6    37    1.5    30     3.1   934.3    0.00 
 271    1:50   0.00   52.3    41    1.2   190     3.4   934.3    0.00 
 271    2:00   0.00   50.6    45    0.4   137     1.9   934.3    0.00 
 271    2:10   0.00   50.8    46    0.8    75     2.2   934.1    0.00 
 271    2:20   0.00   49.2    52    0.8     1     2.6   934.1    0.00 
 271    2:30   0.00   49.6    45    0.8   102     1.8   934.1    0.00 
 271    2:40   0.00   48.9    46    1.0    53     3.2   934.0    0.00 
 271    2:50   0.00   52.3    39    2.0    56     3.1   934.0    0.00 
 271    3:00   0.00   52.6    40    2.8    43     4.6   934.0    0.00 
 271    3:10   0.00   52.9    40    1.3    44     2.6   934.0    0.00 
 271    3:20   0.00   52.4    40    1.3    71     2.0   934.1    0.00 
 271    3:30   0.00   50.2    42    1.1    76     2.1   934.0    0.00 
 271    3:40   0.00   49.8    44    1.4    63     2.8   934.0    0.00 
 271    3:50   0.00   52.4    38    2.1    69     2.7   934.1    0.00 
 271    4:00   0.00   51.8    39    2.4    62     3.4   934.1    0.00 
 271    4:10   0.00   52.0    39    1.8    73     3.4   934.2    0.00 
 271    4:20   0.00   51.5    42    1.5    73     3.0   934.1    0.00 
 271    4:30   0.00   49.1    51    1.1    57     2.9   934.1    0.00 
 271    4:40   0.00   48.7    49    0.7    88     1.9   934.1    0.00 
 271    4:50   0.00   48.4    49    0.7    86     2.2   934.1    0.00 
 271    5:00   0.00   49.3    46    1.1   108     2.2   934.2    0.00 
 271    5:10   0.00   49.2    47    1.8   182     2.8   934.3    0.00 
 271    5:20   0.00   50.0    49    0.3   219     1.6   934.3    0.00 
 271    5:30   0.00   49.1    53    0.6   265     1.5   934.5    0.00 
 271    5:40   0.00   48.1    59    0.6    30     2.2   934.5    0.00 
 271    5:50   0.00   48.0    55    0.2   104     1.1   934.5    0.00 
 271    6:00   0.00   46.7    63    0.9   340     2.9   934.5    0.00 
 271    6:10   0.00   48.5    55    0.9    67     2.4   934.7    0.00 
 271    6:20   0.00   51.0    53    0.9    37     2.2   934.7    0.00 
 271    6:30   0.00   53.6    49    1.4    57     3.0   934.8    0.00 
 271    6:40   0.00   57.3    40    0.7    31     2.7   935.0    0.00 
 271    6:50   0.00   60.2    37    0.5   257     1.7   935.0    0.00 
 271    7:00   0.00   61.7    38    1.0   267     2.4   935.0    0.00 
 271    7:10   0.00   63.1    35    1.7   251     3.1   935.1    0.00 
 271    7:20   0.00   64.5    32    1.6   261     2.6   935.2    0.00 
 271    7:30   0.00   66.3    29    1.8   256     3.2   935.4    0.00 
 271    7:40   0.00   68.5    28    1.6   254     3.1   935.6    0.00 
 271    7:50   0.00   71.2    26    1.7   270     3.6   935.6    0.00 
 271    8:00   0.00   73.1    24    2.2   278     3.8   935.8    0.00 
 271    8:10   0.00   74.9    21    1.6   271     3.1   935.8    0.00 
 271    8:20   0.00   77.2    18    1.5   278     3.7   935.9    0.00 
 271    8:30   0.00   79.0    18    1.7   222     4.5   935.8    0.00 
 271    8:40   0.00   80.5    16    2.1   208     4.4   935.8    0.00 
 271    8:50   0.00   81.5    15    2.4   194     5.0   935.7    0.00 
 271    9:00   0.20   81.8    16    3.1   241     5.8   935.6    0.00 
 271    9:10   0.42   82.4    15    2.6   219     4.8   935.6    0.00 
 271    9:20   0.44   83.2    15    2.2   250     4.5   935.4    0.00 
 271    9:30   0.45   84.0    14    2.2   265     4.7   935.3    0.00 
 271    9:40   0.23   84.7    14    2.2   278     5.1   935.1    0.00 
 271    9:50   0.48   85.5    13    2.7   236     5.8   934.8    0.00 
 271   10:00   0.49   86.6    12    1.3   196     3.4   934.7    0.00 
 271   10:10   0.51   87.4    13    2.6   218     7.2   934.5    0.00 
 271   10:20   0.51   88.4    12    2.6   282     5.8   934.3    0.00 
 271   10:30   0.52   88.4    12    2.4   325     5.0   934.1    0.00 
 271   10:40   0.53   89.6    12    1.8   202     5.5   934.0    0.00 
 271   10:50   0.54   90.0    12    3.0   156     7.1   933.9    0.00 
 271   11:00   0.55   90.9    12    3.2   161     7.5   933.7    0.00 
 271   11:10   0.55   90.7    12    4.6   155     9.3   933.6    0.00 
 271   11:20   0.55   90.9    12    3.3   163     8.3   933.6    0.00 
 271   11:30   0.56   91.4    11    3.0   136     7.6   933.5    0.00 
 271   11:40   0.56   90.9    12    4.4   178    10.7   933.5    0.00 
 271   11:50   0.56   92.0    11    4.3   181     8.9   933.3    0.00 
 271   12:00   0.56   92.5    11    3.6   170     9.1   933.2    0.00 
 271   12:10   0.55   92.5    11    5.0   181     9.9   933.0    0.00 
 271   12:20   0.55   91.8    11    4.1   170     8.3   932.9    0.00 
 271   12:30   0.54   92.3    11    4.5   161    10.1   932.8    0.00 
 271   12:40   0.54   93.2    11    4.3   190     8.6   932.7    0.00 
 271   12:50   0.53   93.3    11    5.1   195    10.2   932.5    0.00 
 271   13:00   0.52   93.6    11    5.2   204     9.9   932.4    0.00 
 271   13:10   0.51   93.2    11    5.4   182     9.4   932.3    0.00 
 271   13:20   0.50   93.6    11    4.5   187     9.1   932.1    0.00 
 271   13:30   0.49   94.3    11    4.6   199     8.8   932.1    0.00 
 271   13:40   0.48   94.3    11    4.7   197     9.4   932.0    0.00 
 271   13:50   0.46   93.6    11    3.3   214     8.1   932.0    0.00 
 271   14:00   0.45   94.4    11    3.9   214     9.4   931.8    0.00 
 271   14:10   0.43   94.7    10    3.6   203    10.9   931.8    0.00 
 271   14:20   0.41   95.0    10    3.2   196    10.4   931.7    0.00 
 271   14:30   0.40   94.4    11    3.3   241     7.6   931.6    0.00 
 271   14:40   0.38   94.4    11    4.6   202     8.7   931.5    0.00 
 271   14:50   0.36   94.4    11    4.1   186     8.8   931.5    0.00 
 271   15:00   0.34   94.7    10    3.0   169     8.2   931.3    0.00 
 271   15:10   0.32   94.5    10    4.4   178     8.8   931.3    0.00 
 271   15:20   0.29   94.6    10    3.4   182     7.7   931.2    0.00 
 271   15:30   0.27   95.0    10    3.2   168     7.6   931.1    0.00 
 271   15:40   0.25   94.4    10    4.5   198     8.9   931.1    0.00 
 271   15:50   0.23   93.7    11    4.3   192     9.7   931.0    0.00 
 271   16:00   0.20   93.3    11    4.9   179     9.6   930.9    0.00 
 271   16:10   0.18   93.0    11    4.4   198     7.5   930.8    0.00 
 271   16:20   0.15   92.6    11    4.3   174     8.0   930.8    0.00 
 271   16:30   0.13   92.6    11    3.0   181     6.6   930.7    0.00 
 271   16:40   0.11   92.1    11    2.8   186     6.3   930.7    0.00 
 271   16:50   0.09   91.9    12    1.8   192     3.2   930.6    0.00 
 271   17:00   0.07   91.2    12    0.8   174     1.9   930.6    0.00 
 271   17:10   0.05   90.0    14    0.4   172     2.2   930.6    0.00 
 271   17:20   0.03   87.2    14    2.4   157     4.8   930.6    0.00 
 271   17:30   0.01   85.4    14    4.9   156    12.3   930.7    0.00 
 271   17:40   0.00   86.5    14    7.2   149    15.2   930.7    0.00 
 271   17:50   0.00   86.2    14    7.0   147    12.1   930.8    0.00 
 271   18:00   0.00   85.7    14    6.9   150    14.1   931.0    0.00 
 271   18:10   0.00   85.0    15    6.4   158    11.6   931.1    0.00 
 271   18:20   0.00   84.0    16    6.2   159    10.8   931.2    0.00 
 271   18:30   0.00   82.8    16    6.1   167    11.0   931.4    0.00 
 271   18:40   0.00   83.0    18    6.4   166    11.4   931.4    0.00 
 271   18:50   0.00   82.5    19    6.3   168    11.3   931.6    0.00 
 271   19:00   0.00   81.8    20    5.7   166    11.0   931.7    0.00 
 271   19:10   0.00   80.9    21    5.0   164     8.4   931.8    0.00 
 271   19:20   0.00   79.9    23    3.9   165     8.4   932.0    0.00 
 271   19:30   0.00   78.3    24    2.7   169     6.9   932.2    0.00 
 271   19:40   0.00   76.1    27    0.9   180     2.8   932.5    0.00 
 271   19:50   0.00   74.7    30    2.2   169     5.0   932.6    0.00 
 271   20:00   0.00   75.8    30    2.5   164     6.1   932.8    0.00 
 271   20:10   0.00   75.7    30    3.8   157     7.6   932.8    0.00 
 271   20:20   0.00   76.6    30    4.0   146     7.7   932.9    0.00 
 271   20:30   0.00   77.4    29    4.7   154     8.6   933.0    0.00 
 271   20:40   0.00   77.0    30    4.0   159     6.9   933.0    0.00 
 271   20:50   0.00   76.4    30    3.4   146     6.7   933.1    0.00 
 271   21:00   0.00   75.4    31    3.0   154     5.6   933.0    0.00 
 271   21:10   0.00   74.6    32    2.4   148     5.0   933.0    0.00 
 271   21:20   0.00   73.8    33    2.1   140     3.9   933.1    0.00 
 271   21:30   0.00   73.9    33    2.5   110     4.5   933.1    0.00 
 271   21:40   0.00   74.0    32    1.4   120     2.9   933.2    0.00 
 271   21:50   0.00   73.5    34    0.6   131     1.8   933.3    0.00 
 271   22:00   0.00   70.1    39    1.1   157     3.4   933.3    0.00 
 271   22:10   0.00   73.6    33    2.9   130     6.0   933.2    0.00 
 271   22:20   0.00   75.9    31    2.4   143     4.4   933.3    0.00 
 271   22:30   0.00   75.2    32    2.4   136     4.5   933.3    0.00 
 271   22:40   0.00   75.1    32    2.4   119     4.2   933.4    0.00 
 271   22:50   0.00   74.0    32    2.6    87     4.4   933.4    0.00 
 271   23:00   0.00   72.1    32    2.7    94     5.2   933.4    0.00 
 271   23:10   0.00   71.1    33    2.5    96     5.3   933.4    0.00 
 271   23:20   0.00   71.1    33    2.1    83     3.9   933.4    0.00 
 271   23:30   0.00   69.4    39    1.9    60     2.8   933.4    0.00 
 271   23:40   0.00   67.3    41    2.5    50     3.5   933.3    0.00 
 271   23:50   0.00   66.8    40    2.5    65     3.4   933.3    0.00 
 272    0:00   0.00   65.7    44    0.6    73     2.0   933.3    0.00 
 272    0:10   0.00   65.0    44    1.2    71     3.1   933.4    0.00 
 272    0:20   0.00   66.3    40    2.9    76     4.0   933.4    0.00 
 272    0:30   0.00   67.4    39    2.4    74     4.4   933.5    0.00 
 272    0:40   0.00   66.8    40    2.3    82     3.7   933.5    0.00 

Return to Rogers Spring graphs page.


Western Regional Climate Center,wrcc@dri.edu